Bayaguana, Dominican Republic

12:24 PM AST on March 06, 2015 (GMT -0400)
La Romana International | Change Station
CLOSE
Current Station
Airport
Location: Cabo Engano,
Elevation: 26 ft
Nearby Weather Stations

Elev 26 ft 18.42 °N, 68.95 °W | Updated 24 minutes ago

Scattered Clouds
Scattered Clouds
86 °F
Feels Like 89 °F
N
14
Wind Variable Wind from East

Today
High -- | Low -- °F
--% Chance of Precip.
Yesterday
High -- | Low -- °F
Precip. -- in
6:54 AM 6:45 PM
Full, 99% visible
Pressure 30.12 in
Visibility 6.2 miles
Clouds Scattered Clouds 2000 ft
Heat Index 89 °F
Dew Point 68 °F
Humidity 55%
Rainfall 0.00 in
Snow Depth Not available.
UV 12 out of 12
Pollen Not available.
Air Quality Not available.
Flu Activity Not available.
METAR MDLR 061600Z 09012KT 9999 SCT020 30/20 Q1020

More Conditions Fewer Conditions

Pressure 30.12 in
Visibility 6.2 miles
Clouds Scattered Clouds 2000 ft
Heat Index 89 °F
Dew Point 68 °F
Humidity 55%
Rainfall 0.00 in
Snow Depth Not available.
UV 12 out of 12
Pollen Not available.
Air Quality Not available.
Flu Activity Not available.
METAR MDLR 061600Z 09012KT 9999 SCT020 30/20 Q1020

More Conditions Fewer Conditions

10-Day Weather Forecast

Almanac

Astronomy

Mar. 06, 2015 Rise Set
Actual Time
Civil Twilight
Nautical Twilight
Astronomical Twilight
Moon
Length of Visible Light
Length of Day
Tomorrow will be .
, % of the Moon is Illuminated

Today's Extremes

Country Highs Country Lows

Community

WunderPhotos

Upload Photos

1,803,335 photos uploaded!

WunderBlogs® & News

Nearby

Air Quality

  Air Quality AQ Index Pollutant
Not available.

Snow Depth

Station Depth Elevation

Earthquake Activity

City Distance Mag. Time & Date
Minimum magnitude displayed is 2.5.

Coastal Water Temperatures

Place Temperature

Nearby Weather Stations